sensor_id;sensor_type;location;lat;lon;timestamp;P1;durP1;ratioP1;P2;durP2;ratioP2
67965;SDS011;54749;47.850;9.002;2022-08-21T00:00:13;4.97;;;2.38;;
67965;SDS011;54749;47.850;9.002;2022-08-21T00:03:03;4.87;;;2.30;;
67965;SDS011;54749;47.850;9.002;2022-08-21T00:05:32;7.97;;;2.63;;
67965;SDS011;54749;47.850;9.002;2022-08-21T00:08:02;6.75;;;2.30;;
67965;SDS011;54749;47.850;9.002;2022-08-21T00:10:29;6.65;;;2.00;;
67965;SDS011;54749;47.850;9.002;2022-08-21T00:12:57;4.20;;;1.73;;
67965;SDS011;54749;47.850;9.002;2022-08-21T00:15:26;4.43;;;1.80;;
67965;SDS011;54749;47.850;9.002;2022-08-21T00:17:54;4.95;;;2.00;;
67965;SDS011;54749;47.850;9.002;2022-08-21T00:20:22;5.13;;;1.95;;
67965;SDS011;54749;47.850;9.002;2022-08-21T00:22:49;6.47;;;2.42;;
67965;SDS011;54749;47.850;9.002;2022-08-21T00:25:17;6.10;;;2.45;;
67965;SDS011;54749;47.850;9.002;2022-08-21T00:27:50;5.90;;;1.80;;
67965;SDS011;54749;47.850;9.002;2022-08-21T00:30:18;5.18;;;1.88;;
67965;SDS011;54749;47.850;9.002;2022-08-21T00:32:48;4.50;;;1.90;;
67965;SDS011;54749;47.850;9.002;2022-08-21T00:35:16;4.45;;;1.83;;
67965;SDS011;54749;47.850;9.002;2022-08-21T00:37:44;7.72;;;2.35;;
67965;SDS011;54749;47.850;9.002;2022-08-21T00:40:13;4.27;;;2.00;;
67965;SDS011;54749;47.850;9.002;2022-08-21T00:42:42;6.45;;;2.72;;
67965;SDS011;54749;47.850;9.002;2022-08-21T00:45:19;8.13;;;3.60;;
67965;SDS011;54749;47.850;9.002;2022-08-21T00:47:47;6.88;;;2.60;;
67965;SDS011;54749;47.850;9.002;2022-08-21T00:50:14;5.30;;;2.47;;
67965;SDS011;54749;47.850;9.002;2022-08-21T00:52:48;6.40;;;2.67;;
67965;SDS011;54749;47.850;9.002;2022-08-21T00:55:17;8.25;;;3.20;;
67965;SDS011;54749;47.850;9.002;2022-08-21T00:57:49;7.53;;;3.08;;
67965;SDS011;54749;47.850;9.002;2022-08-21T01:00:21;6.22;;;2.80;;
67965;SDS011;54749;47.850;9.002;2022-08-21T01:02:55;8.35;;;3.60;;
67965;SDS011;54749;47.850;9.002;2022-08-21T01:05:23;5.73;;;2.93;;
67965;SDS011;54749;47.850;9.002;2022-08-21T01:07:50;6.85;;;2.92;;
67965;SDS011;54749;47.850;9.002;2022-08-21T01:10:17;6.05;;;2.50;;
67965;SDS011;54749;47.850;9.002;2022-08-21T01:12:53;4.35;;;1.98;;
67965;SDS011;54749;47.850;9.002;2022-08-21T01:15:23;3.67;;;1.70;;
67965;SDS011;54749;47.850;9.002;2022-08-21T01:17:53;3.87;;;1.60;;
67965;SDS011;54749;47.850;9.002;2022-08-21T01:20:20;3.95;;;1.70;;
67965;SDS011;54749;47.850;9.002;2022-08-21T01:22:47;4.57;;;1.90;;
67965;SDS011;54749;47.850;9.002;2022-08-21T01:25:14;4.15;;;1.70;;
67965;SDS011;54749;47.850;9.002;2022-08-21T01:27:43;3.50;;;1.60;;
67965;SDS011;54749;47.850;9.002;2022-08-21T01:30:12;3.87;;;1.57;;
67965;SDS011;54749;47.850;9.002;2022-08-21T01:32:41;4.57;;;1.55;;
67965;SDS011;54749;47.850;9.002;2022-08-21T01:35:09;5.13;;;1.70;;
67965;SDS011;54749;47.850;9.002;2022-08-21T01:37:37;3.85;;;1.70;;
67965;SDS011;54749;47.850;9.002;2022-08-21T01:40:05;4.63;;;1.98;;
67965;SDS011;54749;47.850;9.002;2022-08-21T01:42:33;4.40;;;2.00;;
67965;SDS011;54749;47.850;9.002;2022-08-21T01:45:02;4.32;;;1.80;;
67965;SDS011;54749;47.850;9.002;2022-08-21T01:47:31;4.20;;;1.70;;
67965;SDS011;54749;47.850;9.002;2022-08-21T01:49:58;4.50;;;1.70;;
67965;SDS011;54749;47.850;9.002;2022-08-21T01:52:25;4.25;;;1.80;;
67965;SDS011;54749;47.850;9.002;2022-08-21T01:54:52;4.20;;;2.00;;
67965;SDS011;54749;47.850;9.002;2022-08-21T01:57:21;5.72;;;2.55;;
67965;SDS011;54749;47.850;9.002;2022-08-21T01:59:51;8.55;;;2.80;;
67965;SDS011;54749;47.850;9.002;2022-08-21T02:02:19;5.95;;;3.05;;
67965;SDS011;54749;47.850;9.002;2022-08-21T02:04:46;6.45;;;3.00;;
67965;SDS011;54749;47.850;9.002;2022-08-21T02:07:13;7.33;;;2.50;;
67965;SDS011;54749;47.850;9.002;2022-08-21T02:09:39;5.50;;;2.55;;
67965;SDS011;54749;47.850;9.002;2022-08-21T02:12:09;6.55;;;2.10;;
67965;SDS011;54749;47.850;9.002;2022-08-21T02:14:37;4.68;;;2.28;;
67965;SDS011;54749;47.850;9.002;2022-08-21T02:17:04;6.88;;;2.20;;
67965;SDS011;54749;47.850;9.002;2022-08-21T02:19:36;5.07;;;2.37;;
67965;SDS011;54749;47.850;9.002;2022-08-21T02:22:09;5.07;;;2.10;;
67965;SDS011;54749;47.850;9.002;2022-08-21T02:24:37;5.72;;;1.90;;
67965;SDS011;54749;47.850;9.002;2022-08-21T02:27:23;3.78;;;1.60;;
67965;SDS011;54749;47.850;9.002;2022-08-21T02:29:53;4.30;;;1.85;;
67965;SDS011;54749;47.850;9.002;2022-08-21T02:32:22;6.70;;;2.30;;
67965;SDS011;54749;47.850;9.002;2022-08-21T02:34:49;5.20;;;2.00;;
67965;SDS011;54749;47.850;9.002;2022-08-21T02:37:16;3.80;;;1.80;;
67965;SDS011;54749;47.850;9.002;2022-08-21T02:39:43;4.78;;;2.20;;
67965;SDS011;54749;47.850;9.002;2022-08-21T02:42:10;6.82;;;2.30;;
67965;SDS011;54749;47.850;9.002;2022-08-21T02:44:36;5.57;;;2.53;;
67965;SDS011;54749;47.850;9.002;2022-08-21T02:47:03;6.35;;;2.95;;
67965;SDS011;54749;47.850;9.002;2022-08-21T02:49:30;6.07;;;2.83;;
67965;SDS011;54749;47.850;9.002;2022-08-21T02:51:57;6.88;;;3.00;;
67965;SDS011;54749;47.850;9.002;2022-08-21T02:54:24;4.90;;;2.25;;
67965;SDS011;54749;47.850;9.002;2022-08-21T02:56:51;5.20;;;2.40;;
67965;SDS011;54749;47.850;9.002;2022-08-21T02:59:18;5.60;;;2.20;;
67965;SDS011;54749;47.850;9.002;2022-08-21T03:01:45;4.47;;;2.15;;
67965;SDS011;54749;47.850;9.002;2022-08-21T03:04:11;3.70;;;1.77;;
67965;SDS011;54749;47.850;9.002;2022-08-21T03:06:38;4.07;;;2.03;;
67965;SDS011;54749;47.850;9.002;2022-08-21T03:09:05;4.10;;;1.80;;
67965;SDS011;54749;47.850;9.002;2022-08-21T03:11:32;5.50;;;2.03;;
67965;SDS011;54749;47.850;9.002;2022-08-21T03:13:59;6.63;;;2.40;;
67965;SDS011;54749;47.850;9.002;2022-08-21T03:16:26;4.97;;;2.40;;
67965;SDS011;54749;47.850;9.002;2022-08-21T03:18:57;7.15;;;2.30;;
67965;SDS011;54749;47.850;9.002;2022-08-21T03:21:24;5.67;;;2.87;;
67965;SDS011;54749;47.850;9.002;2022-08-21T03:23:51;4.72;;;2.30;;
67965;SDS011;54749;47.850;9.002;2022-08-21T03:26:18;6.25;;;2.10;;
67965;SDS011;54749;47.850;9.002;2022-08-21T03:28:45;6.15;;;2.20;;
67965;SDS011;54749;47.850;9.002;2022-08-21T03:31:12;4.50;;;2.13;;
67965;SDS011;54749;47.850;9.002;2022-08-21T03:33:38;5.43;;;2.20;;
67965;SDS011;54749;47.850;9.002;2022-08-21T03:36:06;5.22;;;2.10;;
67965;SDS011;54749;47.850;9.002;2022-08-21T03:38:34;14.50;;;3.70;;
67965;SDS011;54749;47.850;9.002;2022-08-21T03:41:03;8.27;;;3.30;;
67965;SDS011;54749;47.850;9.002;2022-08-21T03:43:31;9.88;;;3.35;;
67965;SDS011;54749;47.850;9.002;2022-08-21T03:46:02;10.60;;;3.60;;
67965;SDS011;54749;47.850;9.002;2022-08-21T03:48:31;7.20;;;3.10;;
67965;SDS011;54749;47.850;9.002;2022-08-21T03:50:58;8.73;;;3.20;;
67965;SDS011;54749;47.850;9.002;2022-08-21T03:53:25;6.60;;;2.72;;
67965;SDS011;54749;47.850;9.002;2022-08-21T03:55:52;6.20;;;2.60;;
67965;SDS011;54749;47.850;9.002;2022-08-21T03:58:21;8.93;;;2.60;;
67965;SDS011;54749;47.850;9.002;2022-08-21T04:00:51;7.30;;;2.60;;
67965;SDS011;54749;47.850;9.002;2022-08-21T04:03:21;9.77;;;2.60;;
67965;SDS011;54749;47.850;9.002;2022-08-21T04:05:49;9.63;;;2.30;;
67965;SDS011;54749;47.850;9.002;2022-08-21T04:08:16;7.80;;;2.40;;
67965;SDS011;54749;47.850;9.002;2022-08-21T04:10:46;8.43;;;2.40;;
67965;SDS011;54749;47.850;9.002;2022-08-21T04:13:15;12.57;;;3.05;;
67965;SDS011;54749;47.850;9.002;2022-08-21T04:15:42;15.27;;;3.20;;
67965;SDS011;54749;47.850;9.002;2022-08-21T04:18:09;22.35;;;3.92;;
67965;SDS011;54749;47.850;9.002;2022-08-21T04:20:36;22.63;;;3.40;;
67965;SDS011;54749;47.850;9.002;2022-08-21T04:23:04;20.03;;;4.20;;
67965;SDS011;54749;47.850;9.002;2022-08-21T04:25:31;29.67;;;4.30;;
67965;SDS011;54749;47.850;9.002;2022-08-21T04:27:58;29.80;;;4.80;;
67965;SDS011;54749;47.850;9.002;2022-08-21T04:30:25;18.90;;;4.43;;
67965;SDS011;54749;47.850;9.002;2022-08-21T04:32:55;33.83;;;4.93;;
67965;SDS011;54749;47.850;9.002;2022-08-21T04:35:23;48.40;;;5.80;;
67965;SDS011;54749;47.850;9.002;2022-08-21T04:37:52;29.73;;;5.78;;
67965;SDS011;54749;47.850;9.002;2022-08-21T04:40:19;32.40;;;6.38;;
67965;SDS011;54749;47.850;9.002;2022-08-21T04:42:55;31.55;;;5.63;;
67965;SDS011;54749;47.850;9.002;2022-08-21T04:45:33;25.02;;;5.05;;
67965;SDS011;54749;47.850;9.002;2022-08-21T04:48:04;20.03;;;4.23;;
67965;SDS011;54749;47.850;9.002;2022-08-21T04:50:43;15.85;;;3.92;;
67965;SDS011;54749;47.850;9.002;2022-08-21T04:53:18;15.85;;;4.25;;
67965;SDS011;54749;47.850;9.002;2022-08-21T04:55:46;20.77;;;3.83;;
67965;SDS011;54749;47.850;9.002;2022-08-21T04:58:15;25.50;;;5.28;;
67965;SDS011;54749;47.850;9.002;2022-08-21T05:00:45;45.77;;;6.00;;
67965;SDS011;54749;47.850;9.002;2022-08-21T05:03:13;32.15;;;5.68;;
67965;SDS011;54749;47.850;9.002;2022-08-21T05:05:42;30.58;;;5.43;;
67965;SDS011;54749;47.850;9.002;2022-08-21T05:08:11;14.57;;;3.92;;
67965;SDS011;54749;47.850;9.002;2022-08-21T05:10:41;10.73;;;3.85;;
67965;SDS011;54749;47.850;9.002;2022-08-21T05:13:09;11.47;;;3.47;;
67965;SDS011;54749;47.850;9.002;2022-08-21T05:15:37;8.75;;;3.25;;
67965;SDS011;54749;47.850;9.002;2022-08-21T05:18:05;9.52;;;3.20;;
67965;SDS011;54749;47.850;9.002;2022-08-21T05:20:33;8.07;;;2.70;;
67965;SDS011;54749;47.850;9.002;2022-08-21T05:23:01;8.15;;;3.03;;
67965;SDS011;54749;47.850;9.002;2022-08-21T05:25:28;11.17;;;3.10;;
67965;SDS011;54749;47.850;9.002;2022-08-21T05:27:55;12.05;;;3.85;;
67965;SDS011;54749;47.850;9.002;2022-08-21T05:30:26;11.70;;;3.80;;
67965;SDS011;54749;47.850;9.002;2022-08-21T05:32:56;6.90;;;2.97;;
67965;SDS011;54749;47.850;9.002;2022-08-21T05:35:25;6.32;;;2.60;;
67965;SDS011;54749;47.850;9.002;2022-08-21T05:37:52;6.80;;;2.60;;
67965;SDS011;54749;47.850;9.002;2022-08-21T05:40:19;7.20;;;2.70;;
67965;SDS011;54749;47.850;9.002;2022-08-21T05:42:50;7.32;;;2.53;;
67965;SDS011;54749;47.850;9.002;2022-08-21T05:45:20;7.28;;;2.70;;
67965;SDS011;54749;47.850;9.002;2022-08-21T05:50:51;6.27;;;2.70;;
67965;SDS011;54749;47.850;9.002;2022-08-21T05:53:19;10.27;;;3.63;;
67965;SDS011;54749;47.850;9.002;2022-08-21T05:55:48;20.35;;;4.15;;
67965;SDS011;54749;47.850;9.002;2022-08-21T05:58:16;30.90;;;5.03;;
67965;SDS011;54749;47.850;9.002;2022-08-21T06:00:45;50.15;;;5.35;;
67965;SDS011;54749;47.850;9.002;2022-08-21T06:03:19;53.00;;;4.60;;
67965;SDS011;54749;47.850;9.002;2022-08-21T06:05:47;28.63;;;3.83;;
67965;SDS011;54749;47.850;9.002;2022-08-21T06:08:15;89.35;;;5.97;;
67965;SDS011;54749;47.850;9.002;2022-08-21T06:10:43;35.45;;;3.90;;
67965;SDS011;54749;47.850;9.002;2022-08-21T06:13:11;28.83;;;3.47;;
67965;SDS011;54749;47.850;9.002;2022-08-21T06:15:39;14.50;;;3.00;;
67965;SDS011;54749;47.850;9.002;2022-08-21T06:18:06;23.80;;;3.13;;
67965;SDS011;54749;47.850;9.002;2022-08-21T06:20:33;25.13;;;4.28;;
67965;SDS011;54749;47.850;9.002;2022-08-21T06:23:00;30.65;;;4.18;;
67965;SDS011;54749;47.850;9.002;2022-08-21T06:25:28;8.27;;;2.70;;
67965;SDS011;54749;47.850;9.002;2022-08-21T06:28:06;8.07;;;2.93;;
67965;SDS011;54749;47.850;9.002;2022-08-21T06:30:36;12.23;;;3.90;;
67965;SDS011;54749;47.850;9.002;2022-08-21T06:33:04;6.93;;;3.00;;
67965;SDS011;54749;47.850;9.002;2022-08-21T06:35:33;6.03;;;2.60;;
67965;SDS011;54749;47.850;9.002;2022-08-21T06:38:00;7.53;;;2.85;;
67965;SDS011;54749;47.850;9.002;2022-08-21T06:40:28;6.93;;;3.10;;
67965;SDS011;54749;47.850;9.002;2022-08-21T06:43:08;6.38;;;3.38;;
67965;SDS011;54749;47.850;9.002;2022-08-21T06:45:40;7.50;;;4.10;;
67965;SDS011;54749;47.850;9.002;2022-08-21T06:48:08;6.75;;;3.55;;
67965;SDS011;54749;47.850;9.002;2022-08-21T06:50:35;7.43;;;3.25;;
67965;SDS011;54749;47.850;9.002;2022-08-21T06:53:04;8.70;;;3.60;;
67965;SDS011;54749;47.850;9.002;2022-08-21T06:55:36;5.68;;;2.75;;
67965;SDS011;54749;47.850;9.002;2022-08-21T06:58:04;5.57;;;2.90;;
67965;SDS011;54749;47.850;9.002;2022-08-21T07:00:31;6.38;;;3.78;;
67965;SDS011;54749;47.850;9.002;2022-08-21T07:02:59;6.28;;;3.50;;
67965;SDS011;54749;47.850;9.002;2022-08-21T07:05:27;5.73;;;3.20;;
67965;SDS011;54749;47.850;9.002;2022-08-21T07:07:56;6.70;;;3.47;;
67965;SDS011;54749;47.850;9.002;2022-08-21T07:10:23;5.68;;;3.17;;
67965;SDS011;54749;47.850;9.002;2022-08-21T07:12:52;6.18;;;3.33;;
67965;SDS011;54749;47.850;9.002;2022-08-21T07:15:30;5.32;;;2.88;;
67965;SDS011;54749;47.850;9.002;2022-08-21T07:17:58;6.63;;;3.40;;
67965;SDS011;54749;47.850;9.002;2022-08-21T07:20:26;5.70;;;2.90;;
67965;SDS011;54749;47.850;9.002;2022-08-21T07:22:53;6.93;;;3.58;;
67965;SDS011;54749;47.850;9.002;2022-08-21T07:25:22;5.32;;;3.10;;
67965;SDS011;54749;47.850;9.002;2022-08-21T07:27:48;5.82;;;3.20;;
67965;SDS011;54749;47.850;9.002;2022-08-21T07:30:15;6.50;;;4.07;;
67965;SDS011;54749;47.850;9.002;2022-08-21T07:32:42;5.63;;;3.08;;
67965;SDS011;54749;47.850;9.002;2022-08-21T07:35:09;4.72;;;2.42;;
67965;SDS011;54749;47.850;9.002;2022-08-21T07:37:36;5.75;;;2.40;;
67965;SDS011;54749;47.850;9.002;2022-08-21T07:40:03;5.60;;;2.80;;
67965;SDS011;54749;47.850;9.002;2022-08-21T07:42:31;5.00;;;2.63;;
67965;SDS011;54749;47.850;9.002;2022-08-21T07:44:58;5.18;;;2.90;;
67965;SDS011;54749;47.850;9.002;2022-08-21T07:47:25;7.15;;;3.15;;
67965;SDS011;54749;47.850;9.002;2022-08-21T07:50:08;5.80;;;3.45;;
67965;SDS011;54749;47.850;9.002;2022-08-21T07:52:38;5.30;;;2.92;;
67965;SDS011;54749;47.850;9.002;2022-08-21T07:55:07;4.83;;;2.80;;
67965;SDS011;54749;47.850;9.002;2022-08-21T07:57:35;5.38;;;2.97;;
67965;SDS011;54749;47.850;9.002;2022-08-21T08:00:04;5.03;;;2.97;;
67965;SDS011;54749;47.850;9.002;2022-08-21T08:02:37;6.55;;;2.80;;
67965;SDS011;54749;47.850;9.002;2022-08-21T08:05:06;5.78;;;2.88;;
67965;SDS011;54749;47.850;9.002;2022-08-21T08:07:35;5.73;;;2.50;;
67965;SDS011;54749;47.850;9.002;2022-08-21T08:10:02;4.68;;;2.78;;
67965;SDS011;54749;47.850;9.002;2022-08-21T08:12:31;7.40;;;4.18;;
67965;SDS011;54749;47.850;9.002;2022-08-21T08:14:58;8.73;;;3.70;;
67965;SDS011;54749;47.850;9.002;2022-08-21T08:17:26;5.45;;;3.20;;
67965;SDS011;54749;47.850;9.002;2022-08-21T08:19:53;8.77;;;3.30;;
67965;SDS011;54749;47.850;9.002;2022-08-21T08:22:21;4.57;;;2.78;;
67965;SDS011;54749;47.850;9.002;2022-08-21T08:24:50;5.22;;;2.90;;
67965;SDS011;54749;47.850;9.002;2022-08-21T08:27:18;5.50;;;3.10;;
67965;SDS011;54749;47.850;9.002;2022-08-21T08:29:46;4.55;;;2.33;;
67965;SDS011;54749;47.850;9.002;2022-08-21T08:32:13;5.00;;;2.07;;
67965;SDS011;54749;47.850;9.002;2022-08-21T08:34:40;4.57;;;2.50;;
67965;SDS011;54749;47.850;9.002;2022-08-21T08:37:08;4.22;;;1.90;;
67965;SDS011;54749;47.850;9.002;2022-08-21T08:39:36;7.00;;;3.83;;
67965;SDS011;54749;47.850;9.002;2022-08-21T08:42:09;5.65;;;3.55;;
67965;SDS011;54749;47.850;9.002;2022-08-21T08:45:10;6.23;;;3.57;;
67965;SDS011;54749;47.850;9.002;2022-08-21T08:47:42;5.70;;;3.30;;
67965;SDS011;54749;47.850;9.002;2022-08-21T08:52:56;7.60;;;5.15;;
67965;SDS011;54749;47.850;9.002;2022-08-21T08:55:34;8.65;;;5.38;;
67965;SDS011;54749;47.850;9.002;2022-08-21T08:58:06;7.00;;;4.97;;
67965;SDS011;54749;47.850;9.002;2022-08-21T09:00:35;4.78;;;2.60;;
67965;SDS011;54749;47.850;9.002;2022-08-21T09:03:02;6.03;;;3.10;;
67965;SDS011;54749;47.850;9.002;2022-08-21T09:08:26;7.88;;;4.43;;
67965;SDS011;54749;47.850;9.002;2022-08-21T09:11:05;5.23;;;3.30;;
67965;SDS011;54749;47.850;9.002;2022-08-21T09:24:34;6.73;;;4.27;;
67965;SDS011;54749;47.850;9.002;2022-08-21T09:27:14;6.18;;;4.00;;
67965;SDS011;54749;47.850;9.002;2022-08-21T09:29:46;6.53;;;4.20;;
67965;SDS011;54749;47.850;9.002;2022-08-21T09:32:18;7.63;;;5.32;;
67965;SDS011;54749;47.850;9.002;2022-08-21T09:34:59;5.63;;;3.70;;
67965;SDS011;54749;47.850;9.002;2022-08-21T09:40:22;6.07;;;3.50;;
67965;SDS011;54749;47.850;9.002;2022-08-21T09:43:00;6.50;;;3.53;;
67965;SDS011;54749;47.850;9.002;2022-08-21T09:45:43;5.60;;;2.47;;
67965;SDS011;54749;47.850;9.002;2022-08-21T09:48:12;5.03;;;2.35;;
67965;SDS011;54749;47.850;9.002;2022-08-21T09:50:52;4.57;;;2.43;;
67965;SDS011;54749;47.850;9.002;2022-08-21T09:53:27;5.75;;;2.10;;
67965;SDS011;54749;47.850;9.002;2022-08-21T09:56:05;4.68;;;2.00;;
67965;SDS011;54749;47.850;9.002;2022-08-21T09:59:16;4.57;;;1.70;;
67965;SDS011;54749;47.850;9.002;2022-08-21T10:01:45;8.38;;;1.80;;
67965;SDS011;54749;47.850;9.002;2022-08-21T10:04:13;4.13;;;1.60;;
67965;SDS011;54749;47.850;9.002;2022-08-21T10:06:40;3.92;;;1.40;;
67965;SDS011;54749;47.850;9.002;2022-08-21T10:09:10;5.03;;;1.50;;
67965;SDS011;54749;47.850;9.002;2022-08-21T10:11:53;3.42;;;1.20;;
67965;SDS011;54749;47.850;9.002;2022-08-21T10:14:40;5.00;;;1.40;;
67965;SDS011;54749;47.850;9.002;2022-08-21T10:17:22;2.83;;;1.20;;
67965;SDS011;54749;47.850;9.002;2022-08-21T10:20:06;3.45;;;1.20;;
67965;SDS011;54749;47.850;9.002;2022-08-21T10:23:03;3.42;;;1.30;;
67965;SDS011;54749;47.850;9.002;2022-08-21T10:25:34;3.38;;;1.27;;
67965;SDS011;54749;47.850;9.002;2022-08-21T10:28:44;3.85;;;1.10;;
67965;SDS011;54749;47.850;9.002;2022-08-21T10:34:50;3.22;;;1.13;;
67965;SDS011;54749;47.850;9.002;2022-08-21T10:37:10;4.32;;;1.60;;
67965;SDS011;54749;47.850;9.002;2022-08-21T10:39:47;4.53;;;1.30;;
67965;SDS011;54749;47.850;9.002;2022-08-21T10:42:29;4.35;;;1.35;;
67965;SDS011;54749;47.850;9.002;2022-08-21T10:47:36;6.22;;;1.60;;
67965;SDS011;54749;47.850;9.002;2022-08-21T10:58:21;3.30;;;1.00;;
67965;SDS011;54749;47.850;9.002;2022-08-21T11:01:10;3.50;;;1.10;;
67965;SDS011;54749;47.850;9.002;2022-08-21T11:03:43;2.72;;;0.98;;
67965;SDS011;54749;47.850;9.002;2022-08-21T11:06:21;3.85;;;1.20;;
67965;SDS011;54749;47.850;9.002;2022-08-21T11:08:52;3.53;;;0.98;;
67965;SDS011;54749;47.850;9.002;2022-08-21T11:11:34;3.40;;;1.00;;
67965;SDS011;54749;47.850;9.002;2022-08-21T11:17:16;3.53;;;1.10;;
67965;SDS011;54749;47.850;9.002;2022-08-21T11:19:50;3.00;;;1.00;;
67965;SDS011;54749;47.850;9.002;2022-08-21T11:30:55;3.65;;;1.00;;
67965;SDS011;54749;47.850;9.002;2022-08-21T11:36:07;4.65;;;1.30;;
67965;SDS011;54749;47.850;9.002;2022-08-21T11:38:57;3.67;;;1.10;;
67965;SDS011;54749;47.850;9.002;2022-08-21T11:41:37;3.53;;;1.10;;
67965;SDS011;54749;47.850;9.002;2022-08-21T11:44:13;3.78;;;1.33;;
67965;SDS011;54749;47.850;9.002;2022-08-21T11:46:52;3.47;;;1.20;;
67965;SDS011;54749;47.850;9.002;2022-08-21T11:49:33;3.70;;;1.30;;
67965;SDS011;54749;47.850;9.002;2022-08-21T11:55:15;3.47;;;1.10;;
67965;SDS011;54749;47.850;9.002;2022-08-21T12:00:26;4.72;;;1.50;;
67965;SDS011;54749;47.850;9.002;2022-08-21T12:03:06;3.30;;;1.10;;
67965;SDS011;54749;47.850;9.002;2022-08-21T12:05:38;3.27;;;1.20;;
67965;SDS011;54749;47.850;9.002;2022-08-21T12:10:42;3.40;;;1.38;;
67965;SDS011;54749;47.850;9.002;2022-08-21T12:13:27;3.85;;;1.20;;
67965;SDS011;54749;47.850;9.002;2022-08-21T12:16:11;4.38;;;1.30;;
67965;SDS011;54749;47.850;9.002;2022-08-21T12:18:41;3.63;;;1.27;;
67965;SDS011;54749;47.850;9.002;2022-08-21T12:23:59;4.28;;;1.33;;
67965;SDS011;54749;47.850;9.002;2022-08-21T12:26:36;3.65;;;1.30;;
67965;SDS011;54749;47.850;9.002;2022-08-21T12:29:16;3.65;;;1.13;;
67965;SDS011;54749;47.850;9.002;2022-08-21T12:31:54;3.10;;;1.00;;
67965;SDS011;54749;47.850;9.002;2022-08-21T12:34:32;3.10;;;1.10;;
67965;SDS011;54749;47.850;9.002;2022-08-21T12:37:45;2.95;;;1.08;;
67965;SDS011;54749;47.850;9.002;2022-08-21T12:42:44;3.38;;;1.10;;
67965;SDS011;54749;47.850;9.002;2022-08-21T12:45:46;3.73;;;0.93;;
67965;SDS011;54749;47.850;9.002;2022-08-21T12:50:51;3.25;;;1.20;;
67965;SDS011;54749;47.850;9.002;2022-08-21T12:56:02;3.95;;;1.40;;
67965;SDS011;54749;47.850;9.002;2022-08-21T12:58:31;6.47;;;2.20;;
67965;SDS011;54749;47.850;9.002;2022-08-21T13:03:30;3.92;;;1.10;;
67965;SDS011;54749;47.850;9.002;2022-08-21T13:05:58;3.40;;;1.02;;
67965;SDS011;54749;47.850;9.002;2022-08-21T13:08:25;3.85;;;1.20;;
67965;SDS011;54749;47.850;9.002;2022-08-21T13:10:58;3.13;;;1.13;;
67965;SDS011;54749;47.850;9.002;2022-08-21T13:13:41;3.33;;;1.13;;
67965;SDS011;54749;47.850;9.002;2022-08-21T13:16:18;3.00;;;1.02;;
67965;SDS011;54749;47.850;9.002;2022-08-21T13:18:53;2.90;;;0.93;;
67965;SDS011;54749;47.850;9.002;2022-08-21T13:21:33;2.70;;;0.90;;
67965;SDS011;54749;47.850;9.002;2022-08-21T13:24:10;2.70;;;0.97;;
67965;SDS011;54749;47.850;9.002;2022-08-21T13:27:02;3.08;;;0.90;;
67965;SDS011;54749;47.850;9.002;2022-08-21T13:29:30;2.83;;;1.10;;
67965;SDS011;54749;47.850;9.002;2022-08-21T13:32:06;3.20;;;1.10;;
67965;SDS011;54749;47.850;9.002;2022-08-21T13:34:34;4.05;;;1.15;;
67965;SDS011;54749;47.850;9.002;2022-08-21T13:37:07;4.17;;;0.80;;
67965;SDS011;54749;47.850;9.002;2022-08-21T13:39:35;2.90;;;0.82;;
67965;SDS011;54749;47.850;9.002;2022-08-21T13:42:04;2.70;;;1.00;;
67965;SDS011;54749;47.850;9.002;2022-08-21T13:44:42;3.83;;;1.05;;
67965;SDS011;54749;47.850;9.002;2022-08-21T13:47:12;2.80;;;0.90;;
67965;SDS011;54749;47.850;9.002;2022-08-21T13:49:47;3.00;;;1.00;;
67965;SDS011;54749;47.850;9.002;2022-08-21T13:52:20;3.25;;;0.93;;
67965;SDS011;54749;47.850;9.002;2022-08-21T13:54:53;3.50;;;1.10;;
67965;SDS011;54749;47.850;9.002;2022-08-21T13:57:41;4.10;;;1.10;;
67965;SDS011;54749;47.850;9.002;2022-08-21T14:02:39;3.57;;;1.20;;
67965;SDS011;54749;47.850;9.002;2022-08-21T14:05:14;3.42;;;1.00;;
67965;SDS011;54749;47.850;9.002;2022-08-21T14:08:06;3.55;;;1.20;;
67965;SDS011;54749;47.850;9.002;2022-08-21T14:10:49;3.10;;;1.00;;
67965;SDS011;54749;47.850;9.002;2022-08-21T14:18:44;4.47;;;1.40;;
67965;SDS011;54749;47.850;9.002;2022-08-21T14:21:23;3.67;;;1.30;;
67965;SDS011;54749;47.850;9.002;2022-08-21T14:24:03;3.55;;;1.30;;
67965;SDS011;54749;47.850;9.002;2022-08-21T14:26:42;4.07;;;1.25;;
67965;SDS011;54749;47.850;9.002;2022-08-21T14:29:13;4.10;;;1.23;;
67965;SDS011;54749;47.850;9.002;2022-08-21T14:31:42;3.25;;;1.00;;
67965;SDS011;54749;47.850;9.002;2022-08-21T14:34:10;3.70;;;1.20;;
67965;SDS011;54749;47.850;9.002;2022-08-21T14:36:45;3.10;;;1.10;;
67965;SDS011;54749;47.850;9.002;2022-08-21T14:39:14;3.22;;;1.20;;
67965;SDS011;54749;47.850;9.002;2022-08-21T14:41:41;3.63;;;1.30;;
67965;SDS011;54749;47.850;9.002;2022-08-21T14:44:09;3.83;;;1.10;;
67965;SDS011;54749;47.850;9.002;2022-08-21T14:46:37;4.78;;;1.90;;
67965;SDS011;54749;47.850;9.002;2022-08-21T14:49:21;5.03;;;1.67;;
67965;SDS011;54749;47.850;9.002;2022-08-21T14:51:48;4.00;;;1.25;;
67965;SDS011;54749;47.850;9.002;2022-08-21T14:54:20;3.57;;;1.20;;
67965;SDS011;54749;47.850;9.002;2022-08-21T14:56:56;3.42;;;1.40;;
67965;SDS011;54749;47.850;9.002;2022-08-21T14:59:24;4.78;;;1.50;;
67965;SDS011;54749;47.850;9.002;2022-08-21T15:01:52;3.40;;;1.27;;
67965;SDS011;54749;47.850;9.002;2022-08-21T15:04:19;3.13;;;1.30;;
67965;SDS011;54749;47.850;9.002;2022-08-21T15:06:46;4.20;;;1.53;;
67965;SDS011;54749;47.850;9.002;2022-08-21T15:09:12;3.80;;;1.50;;
67965;SDS011;54749;47.850;9.002;2022-08-21T15:11:39;4.13;;;1.50;;
67965;SDS011;54749;47.850;9.002;2022-08-21T15:14:10;4.28;;;1.60;;
67965;SDS011;54749;47.850;9.002;2022-08-21T15:16:44;4.32;;;1.80;;
67965;SDS011;54749;47.850;9.002;2022-08-21T15:19:11;4.60;;;1.40;;
67965;SDS011;54749;47.850;9.002;2022-08-21T15:21:38;3.85;;;1.40;;
67965;SDS011;54749;47.850;9.002;2022-08-21T15:24:05;4.55;;;1.50;;
67965;SDS011;54749;47.850;9.002;2022-08-21T15:26:32;3.83;;;1.35;;
67965;SDS011;54749;47.850;9.002;2022-08-21T15:29:01;3.22;;;1.00;;
67965;SDS011;54749;47.850;9.002;2022-08-21T15:31:32;3.80;;;1.40;;
67965;SDS011;54749;47.850;9.002;2022-08-21T15:33:59;5.55;;;1.73;;
67965;SDS011;54749;47.850;9.002;2022-08-21T15:36:26;5.07;;;1.60;;
67965;SDS011;54749;47.850;9.002;2022-08-21T15:38:53;5.13;;;1.80;;
67965;SDS011;54749;47.850;9.002;2022-08-21T15:41:20;6.10;;;1.60;;
67965;SDS011;54749;47.850;9.002;2022-08-21T15:43:47;4.67;;;1.27;;
67965;SDS011;54749;47.850;9.002;2022-08-21T15:46:17;3.90;;;1.30;;
67965;SDS011;54749;47.850;9.002;2022-08-21T15:48:45;4.18;;;1.60;;
67965;SDS011;54749;47.850;9.002;2022-08-21T15:51:13;5.07;;;1.80;;
67965;SDS011;54749;47.850;9.002;2022-08-21T15:53:41;4.60;;;1.70;;
67965;SDS011;54749;47.850;9.002;2022-08-21T15:56:11;4.80;;;1.70;;
67965;SDS011;54749;47.850;9.002;2022-08-21T15:58:46;5.85;;;1.50;;
67965;SDS011;54749;47.850;9.002;2022-08-21T16:01:14;4.00;;;1.80;;
67965;SDS011;54749;47.850;9.002;2022-08-21T16:03:41;4.30;;;1.65;;
67965;SDS011;54749;47.850;9.002;2022-08-21T16:06:12;3.95;;;1.58;;
67965;SDS011;54749;47.850;9.002;2022-08-21T16:08:38;4.20;;;1.57;;
67965;SDS011;54749;47.850;9.002;2022-08-21T16:11:05;5.00;;;1.63;;
67965;SDS011;54749;47.850;9.002;2022-08-21T16:13:36;3.42;;;1.50;;
67965;SDS011;54749;47.850;9.002;2022-08-21T16:16:12;4.55;;;1.55;;
67965;SDS011;54749;47.850;9.002;2022-08-21T16:18:43;3.95;;;1.30;;
67965;SDS011;54749;47.850;9.002;2022-08-21T16:21:10;3.43;;;1.27;;
67965;SDS011;54749;47.850;9.002;2022-08-21T16:23:37;3.78;;;1.23;;
67965;SDS011;54749;47.850;9.002;2022-08-21T16:26:06;4.32;;;1.45;;
67965;SDS011;54749;47.850;9.002;2022-08-21T16:28:41;3.83;;;1.42;;